sensor_id;sensor_type;location;lat;lon;timestamp;P1;durP1;ratioP1;P2;durP2;ratioP2
26600;SDS011;14241;49.260;10.496;2024-03-06T00:00:10;11.82;;;10.73;;
26600;SDS011;14241;49.260;10.496;2024-03-06T00:02:36;13.35;;;12.07;;
26600;SDS011;14241;49.260;10.496;2024-03-06T00:05:01;13.68;;;12.27;;
26600;SDS011;14241;49.260;10.496;2024-03-06T00:07:27;13.10;;;11.70;;
26600;SDS011;14241;49.260;10.496;2024-03-06T00:09:52;12.48;;;11.07;;
26600;SDS011;14241;49.260;10.496;2024-03-06T00:12:18;13.40;;;12.10;;
26600;SDS011;14241;49.260;10.496;2024-03-06T00:14:43;12.45;;;11.27;;
26600;SDS011;14241;49.260;10.496;2024-03-06T00:17:09;12.65;;;11.38;;
26600;SDS011;14241;49.260;10.496;2024-03-06T00:19:34;13.23;;;11.93;;
26600;SDS011;14241;49.260;10.496;2024-03-06T00:22:00;12.75;;;11.45;;
26600;SDS011;14241;49.260;10.496;2024-03-06T00:24:26;12.27;;;11.02;;
26600;SDS011;14241;49.260;10.496;2024-03-06T00:26:51;12.65;;;11.43;;
26600;SDS011;14241;49.260;10.496;2024-03-06T00:29:17;12.63;;;11.32;;
26600;SDS011;14241;49.260;10.496;2024-03-06T00:31:43;12.50;;;11.40;;
26600;SDS011;14241;49.260;10.496;2024-03-06T00:34:09;13.30;;;11.90;;
26600;SDS011;14241;49.260;10.496;2024-03-06T00:36:35;12.65;;;11.45;;
26600;SDS011;14241;49.260;10.496;2024-03-06T00:39:00;13.15;;;11.85;;
26600;SDS011;14241;49.260;10.496;2024-03-06T00:41:25;13.40;;;12.02;;
26600;SDS011;14241;49.260;10.496;2024-03-06T00:43:50;13.27;;;11.95;;
26600;SDS011;14241;49.260;10.496;2024-03-06T00:46:16;14.63;;;13.13;;
26600;SDS011;14241;49.260;10.496;2024-03-06T00:48:41;13.35;;;12.05;;
26600;SDS011;14241;49.260;10.496;2024-03-06T00:51:07;13.18;;;11.88;;
26600;SDS011;14241;49.260;10.496;2024-03-06T00:53:32;12.88;;;11.68;;
26600;SDS011;14241;49.260;10.496;2024-03-06T00:55:58;13.98;;;12.27;;
26600;SDS011;14241;49.260;10.496;2024-03-06T00:58:23;13.45;;;12.15;;
26600;SDS011;14241;49.260;10.496;2024-03-06T01:00:48;14.27;;;12.43;;
26600;SDS011;14241;49.260;10.496;2024-03-06T01:03:14;12.38;;;11.18;;
26600;SDS011;14241;49.260;10.496;2024-03-06T01:05:39;13.68;;;12.27;;
26600;SDS011;14241;49.260;10.496;2024-03-06T01:08:05;12.95;;;11.57;;
26600;SDS011;14241;49.260;10.496;2024-03-06T01:10:30;13.15;;;11.80;;
26600;SDS011;14241;49.260;10.496;2024-03-06T01:12:56;12.35;;;11.15;;
26600;SDS011;14241;49.260;10.496;2024-03-06T01:15:21;12.82;;;11.52;;
26600;SDS011;14241;49.260;10.496;2024-03-06T01:17:46;13.50;;;12.15;;
26600;SDS011;14241;49.260;10.496;2024-03-06T01:20:11;13.77;;;12.48;;
26600;SDS011;14241;49.260;10.496;2024-03-06T01:22:37;14.68;;;13.27;;
26600;SDS011;14241;49.260;10.496;2024-03-06T01:25:02;13.52;;;12.18;;
26600;SDS011;14241;49.260;10.496;2024-03-06T01:27:28;13.48;;;12.13;;
26600;SDS011;14241;49.260;10.496;2024-03-06T01:29:53;14.60;;;12.82;;
26600;SDS011;14241;49.260;10.496;2024-03-06T01:32:18;15.50;;;13.85;;
26600;SDS011;14241;49.260;10.496;2024-03-06T01:34:43;15.30;;;13.75;;
26600;SDS011;14241;49.260;10.496;2024-03-06T01:37:09;15.15;;;13.65;;
26600;SDS011;14241;49.260;10.496;2024-03-06T01:39:34;16.55;;;14.82;;
26600;SDS011;14241;49.260;10.496;2024-03-06T01:42:01;15.45;;;13.95;;
26600;SDS011;14241;49.260;10.496;2024-03-06T01:44:27;15.85;;;14.35;;
26600;SDS011;14241;49.260;10.496;2024-03-06T01:46:52;16.73;;;14.95;;
26600;SDS011;14241;49.260;10.496;2024-03-06T01:49:17;15.68;;;13.82;;
26600;SDS011;14241;49.260;10.496;2024-03-06T01:51:45;15.13;;;13.65;;
26600;SDS011;14241;49.260;10.496;2024-03-06T01:54:12;15.32;;;13.82;;
26600;SDS011;14241;49.260;10.496;2024-03-06T01:56:40;15.07;;;13.50;;
26600;SDS011;14241;49.260;10.496;2024-03-06T01:59:09;16.17;;;14.45;;
26600;SDS011;14241;49.260;10.496;2024-03-06T02:01:35;15.77;;;14.27;;
26600;SDS011;14241;49.260;10.496;2024-03-06T02:04:01;17.63;;;15.75;;
26600;SDS011;14241;49.260;10.496;2024-03-06T02:06:26;17.67;;;15.90;;
26600;SDS011;14241;49.260;10.496;2024-03-06T02:08:52;16.25;;;14.55;;
26600;SDS011;14241;49.260;10.496;2024-03-06T02:11:17;17.63;;;15.88;;
26600;SDS011;14241;49.260;10.496;2024-03-06T02:13:43;18.88;;;16.90;;
26600;SDS011;14241;49.260;10.496;2024-03-06T02:16:09;19.15;;;17.30;;
26600;SDS011;14241;49.260;10.496;2024-03-06T02:18:34;18.45;;;16.63;;
26600;SDS011;14241;49.260;10.496;2024-03-06T02:20:59;19.10;;;17.27;;
26600;SDS011;14241;49.260;10.496;2024-03-06T02:23:25;20.42;;;17.38;;
26600;SDS011;14241;49.260;10.496;2024-03-06T02:25:50;19.45;;;17.38;;
26600;SDS011;14241;49.260;10.496;2024-03-06T02:28:16;19.05;;;17.17;;
26600;SDS011;14241;49.260;10.496;2024-03-06T02:30:42;18.85;;;17.05;;
26600;SDS011;14241;49.260;10.496;2024-03-06T02:33:07;19.77;;;17.77;;
26600;SDS011;14241;49.260;10.496;2024-03-06T02:35:32;19.30;;;17.30;;
26600;SDS011;14241;49.260;10.496;2024-03-06T02:37:59;20.30;;;18.30;;
26600;SDS011;14241;49.260;10.496;2024-03-06T02:40:24;20.58;;;18.60;;
26600;SDS011;14241;49.260;10.496;2024-03-06T02:42:49;19.45;;;17.58;;
26600;SDS011;14241;49.260;10.496;2024-03-06T02:45:15;20.88;;;18.05;;
26600;SDS011;14241;49.260;10.496;2024-03-06T02:47:40;19.48;;;17.60;;
26600;SDS011;14241;49.260;10.496;2024-03-06T02:50:05;21.45;;;18.90;;
26600;SDS011;14241;49.260;10.496;2024-03-06T02:52:32;20.30;;;18.17;;
26600;SDS011;14241;49.260;10.496;2024-03-06T02:54:57;19.98;;;18.08;;
26600;SDS011;14241;49.260;10.496;2024-03-06T02:57:23;21.92;;;18.90;;
26600;SDS011;14241;49.260;10.496;2024-03-06T02:59:48;20.00;;;18.00;;
26600;SDS011;14241;49.260;10.496;2024-03-06T03:02:14;20.00;;;18.00;;
26600;SDS011;14241;49.260;10.496;2024-03-06T03:04:39;20.17;;;18.08;;
26600;SDS011;14241;49.260;10.496;2024-03-06T03:07:05;20.15;;;18.17;;
26600;SDS011;14241;49.260;10.496;2024-03-06T03:09:30;20.85;;;18.77;;
26600;SDS011;14241;49.260;10.496;2024-03-06T03:11:56;19.85;;;17.88;;
26600;SDS011;14241;49.260;10.496;2024-03-06T03:14:21;21.35;;;19.10;;
26600;SDS011;14241;49.260;10.496;2024-03-06T03:16:46;21.35;;;19.00;;
26600;SDS011;14241;49.260;10.496;2024-03-06T03:19:11;21.52;;;19.35;;
26600;SDS011;14241;49.260;10.496;2024-03-06T03:21:37;23.02;;;19.05;;
26600;SDS011;14241;49.260;10.496;2024-03-06T03:24:02;20.42;;;18.35;;
26600;SDS011;14241;49.260;10.496;2024-03-06T03:26:28;20.40;;;18.42;;
26600;SDS011;14241;49.260;10.496;2024-03-06T03:28:53;22.40;;;19.95;;
26600;SDS011;14241;49.260;10.496;2024-03-06T03:31:20;22.33;;;20.02;;
26600;SDS011;14241;49.260;10.496;2024-03-06T03:33:46;22.33;;;20.05;;
26600;SDS011;14241;49.260;10.496;2024-03-06T03:36:11;22.75;;;20.45;;
26600;SDS011;14241;49.260;10.496;2024-03-06T03:38:37;22.88;;;20.60;;
26600;SDS011;14241;49.260;10.496;2024-03-06T03:41:12;23.88;;;21.48;;
26600;SDS011;14241;49.260;10.496;2024-03-06T03:43:41;23.48;;;21.10;;
26600;SDS011;14241;49.260;10.496;2024-03-06T03:46:06;23.42;;;20.77;;
26600;SDS011;14241;49.260;10.496;2024-03-06T03:48:32;23.58;;;21.08;;
26600;SDS011;14241;49.260;10.496;2024-03-06T03:51:00;23.70;;;20.60;;
26600;SDS011;14241;49.260;10.496;2024-03-06T03:53:26;25.70;;;21.63;;
26600;SDS011;14241;49.260;10.496;2024-03-06T03:55:51;24.63;;;21.90;;
26600;SDS011;14241;49.260;10.496;2024-03-06T03:58:16;23.48;;;20.98;;
26600;SDS011;14241;49.260;10.496;2024-03-06T04:00:42;24.73;;;22.13;;
26600;SDS011;14241;49.260;10.496;2024-03-06T04:03:07;24.65;;;21.35;;
26600;SDS011;14241;49.260;10.496;2024-03-06T04:05:32;26.95;;;22.45;;
26600;SDS011;14241;49.260;10.496;2024-03-06T04:07:58;24.42;;;21.38;;
26600;SDS011;14241;49.260;10.496;2024-03-06T04:10:23;27.15;;;22.27;;
26600;SDS011;14241;49.260;10.496;2024-03-06T04:12:48;26.15;;;22.15;;
26600;SDS011;14241;49.260;10.496;2024-03-06T04:15:14;26.23;;;21.55;;
26600;SDS011;14241;49.260;10.496;2024-03-06T04:17:39;24.33;;;21.83;;
26600;SDS011;14241;49.260;10.496;2024-03-06T04:20:06;25.73;;;21.90;;
26600;SDS011;14241;49.260;10.496;2024-03-06T04:22:32;26.27;;;23.45;;
26600;SDS011;14241;49.260;10.496;2024-03-06T04:24:57;28.63;;;23.63;;
26600;SDS011;14241;49.260;10.496;2024-03-06T04:27:24;27.42;;;23.77;;
26600;SDS011;14241;49.260;10.496;2024-03-06T04:29:50;28.17;;;24.50;;
26600;SDS011;14241;49.260;10.496;2024-03-06T04:32:15;29.63;;;24.50;;
26600;SDS011;14241;49.260;10.496;2024-03-06T04:34:40;27.33;;;23.70;;
26600;SDS011;14241;49.260;10.496;2024-03-06T04:37:06;28.77;;;23.58;;
26600;SDS011;14241;49.260;10.496;2024-03-06T04:39:31;29.60;;;24.10;;
26600;SDS011;14241;49.260;10.496;2024-03-06T04:41:57;29.80;;;25.23;;
26600;SDS011;14241;49.260;10.496;2024-03-06T04:44:22;29.88;;;23.88;;
26600;SDS011;14241;49.260;10.496;2024-03-06T04:46:49;29.90;;;25.13;;
26600;SDS011;14241;49.260;10.496;2024-03-06T04:49:15;32.75;;;25.98;;
26600;SDS011;14241;49.260;10.496;2024-03-06T04:51:40;30.70;;;24.00;;
26600;SDS011;14241;49.260;10.496;2024-03-06T04:54:06;32.13;;;24.95;;
26600;SDS011;14241;49.260;10.496;2024-03-06T04:56:31;30.85;;;25.50;;
26600;SDS011;14241;49.260;10.496;2024-03-06T04:58:56;33.70;;;25.95;;
26600;SDS011;14241;49.260;10.496;2024-03-06T05:01:22;28.67;;;24.95;;
26600;SDS011;14241;49.260;10.496;2024-03-06T05:03:48;27.42;;;22.92;;
26600;SDS011;14241;49.260;10.496;2024-03-06T05:06:14;29.92;;;26.00;;
26600;SDS011;14241;49.260;10.496;2024-03-06T05:08:39;34.08;;;26.48;;
26600;SDS011;14241;49.260;10.496;2024-03-06T05:11:05;31.00;;;26.27;;
26600;SDS011;14241;49.260;10.496;2024-03-06T05:13:31;32.53;;;26.75;;
26600;SDS011;14241;49.260;10.496;2024-03-06T05:15:56;32.85;;;26.52;;
26600;SDS011;14241;49.260;10.496;2024-03-06T05:18:21;31.85;;;25.40;;
26600;SDS011;14241;49.260;10.496;2024-03-06T05:20:47;32.58;;;24.90;;
26600;SDS011;14241;49.260;10.496;2024-03-06T05:23:12;31.27;;;25.00;;
26600;SDS011;14241;49.260;10.496;2024-03-06T05:25:38;32.38;;;24.48;;
26600;SDS011;14241;49.260;10.496;2024-03-06T05:28:04;31.95;;;24.88;;
26600;SDS011;14241;49.260;10.496;2024-03-06T05:30:30;31.10;;;25.10;;
26600;SDS011;14241;49.260;10.496;2024-03-06T05:32:55;30.85;;;25.52;;
26600;SDS011;14241;49.260;10.496;2024-03-06T05:35:21;35.50;;;26.15;;
26600;SDS011;14241;49.260;10.496;2024-03-06T05:37:46;33.70;;;25.63;;
26600;SDS011;14241;49.260;10.496;2024-03-06T05:40:11;32.78;;;25.60;;
26600;SDS011;14241;49.260;10.496;2024-03-06T05:42:37;36.85;;;26.52;;
26600;SDS011;14241;49.260;10.496;2024-03-06T05:45:02;34.60;;;26.75;;
26600;SDS011;14241;49.260;10.496;2024-03-06T05:47:35;32.92;;;24.60;;
26600;SDS011;14241;49.260;10.496;2024-03-06T05:50:00;35.05;;;26.63;;
26600;SDS011;14241;49.260;10.496;2024-03-06T05:52:30;35.00;;;26.27;;
26600;SDS011;14241;49.260;10.496;2024-03-06T05:54:55;33.03;;;25.83;;
26600;SDS011;14241;49.260;10.496;2024-03-06T05:57:20;36.38;;;27.20;;
26600;SDS011;14241;49.260;10.496;2024-03-06T05:59:45;35.88;;;26.17;;
26600;SDS011;14241;49.260;10.496;2024-03-06T06:02:11;36.63;;;27.30;;
26600;SDS011;14241;49.260;10.496;2024-03-06T06:04:36;36.33;;;25.70;;
26600;SDS011;14241;49.260;10.496;2024-03-06T06:07:01;40.25;;;28.58;;
26600;SDS011;14241;49.260;10.496;2024-03-06T06:09:28;37.95;;;27.90;;
26600;SDS011;14241;49.260;10.496;2024-03-06T06:11:53;39.25;;;27.92;;
26600;SDS011;14241;49.260;10.496;2024-03-06T06:14:19;34.00;;;26.60;;
26600;SDS011;14241;49.260;10.496;2024-03-06T06:16:44;39.28;;;29.13;;
26600;SDS011;14241;49.260;10.496;2024-03-06T06:19:10;39.50;;;28.40;;
26600;SDS011;14241;49.260;10.496;2024-03-06T06:21:36;39.25;;;29.55;;
26600;SDS011;14241;49.260;10.496;2024-03-06T06:24:02;39.50;;;28.90;;
26600;SDS011;14241;49.260;10.496;2024-03-06T06:26:29;40.42;;;29.60;;
26600;SDS011;14241;49.260;10.496;2024-03-06T06:28:54;41.13;;;30.10;;
26600;SDS011;14241;49.260;10.496;2024-03-06T06:31:19;39.55;;;29.25;;
26600;SDS011;14241;49.260;10.496;2024-03-06T06:33:45;42.97;;;30.15;;
26600;SDS011;14241;49.260;10.496;2024-03-06T06:36:11;37.83;;;27.65;;
26600;SDS011;14241;49.260;10.496;2024-03-06T06:38:36;40.00;;;29.85;;
26600;SDS011;14241;49.260;10.496;2024-03-06T06:41:01;41.03;;;29.42;;
26600;SDS011;14241;49.260;10.496;2024-03-06T06:43:27;40.38;;;28.42;;
26600;SDS011;14241;49.260;10.496;2024-03-06T06:45:53;43.63;;;29.52;;
26600;SDS011;14241;49.260;10.496;2024-03-06T06:48:18;44.92;;;29.75;;
26600;SDS011;14241;49.260;10.496;2024-03-06T06:50:43;42.88;;;29.05;;
26600;SDS011;14241;49.260;10.496;2024-03-06T06:53:09;44.08;;;31.27;;
26600;SDS011;14241;49.260;10.496;2024-03-06T06:55:34;43.33;;;31.40;;
26600;SDS011;14241;49.260;10.496;2024-03-06T06:58:01;45.05;;;30.95;;
26600;SDS011;14241;49.260;10.496;2024-03-06T07:00:26;42.00;;;30.13;;
26600;SDS011;14241;49.260;10.496;2024-03-06T07:02:51;45.10;;;31.42;;
26600;SDS011;14241;49.260;10.496;2024-03-06T07:05:17;43.03;;;30.63;;
26600;SDS011;14241;49.260;10.496;2024-03-06T07:07:43;44.97;;;31.50;;
26600;SDS011;14241;49.260;10.496;2024-03-06T07:10:08;42.15;;;30.58;;
26600;SDS011;14241;49.260;10.496;2024-03-06T07:12:34;43.15;;;30.13;;
26600;SDS011;14241;49.260;10.496;2024-03-06T07:14:59;43.22;;;29.92;;
26600;SDS011;14241;49.260;10.496;2024-03-06T07:17:24;46.65;;;30.38;;
26600;SDS011;14241;49.260;10.496;2024-03-06T07:19:50;42.00;;;29.55;;
26600;SDS011;14241;49.260;10.496;2024-03-06T07:22:16;44.90;;;29.88;;
26600;SDS011;14241;49.260;10.496;2024-03-06T07:24:41;44.72;;;31.48;;
26600;SDS011;14241;49.260;10.496;2024-03-06T07:27:06;41.75;;;29.92;;
26600;SDS011;14241;49.260;10.496;2024-03-06T07:29:34;43.55;;;30.08;;
26600;SDS011;14241;49.260;10.496;2024-03-06T07:32:00;41.20;;;29.65;;
26600;SDS011;14241;49.260;10.496;2024-03-06T07:34:25;44.60;;;31.00;;
26600;SDS011;14241;49.260;10.496;2024-03-06T07:36:50;46.78;;;30.58;;
26600;SDS011;14241;49.260;10.496;2024-03-06T07:39:16;43.03;;;30.30;;
26600;SDS011;14241;49.260;10.496;2024-03-06T07:41:41;46.53;;;31.20;;
26600;SDS011;14241;49.260;10.496;2024-03-06T07:44:07;44.30;;;30.83;;
26600;SDS011;14241;49.260;10.496;2024-03-06T07:46:34;43.47;;;31.02;;
26600;SDS011;14241;49.260;10.496;2024-03-06T07:48:59;44.05;;;30.17;;
26600;SDS011;14241;49.260;10.496;2024-03-06T07:51:24;47.38;;;31.88;;
26600;SDS011;14241;49.260;10.496;2024-03-06T07:53:49;47.38;;;30.48;;
26600;SDS011;14241;49.260;10.496;2024-03-06T07:56:18;48.55;;;33.50;;
26600;SDS011;14241;49.260;10.496;2024-03-06T07:58:43;47.70;;;31.20;;
26600;SDS011;14241;49.260;10.496;2024-03-06T08:01:09;44.38;;;31.02;;
26600;SDS011;14241;49.260;10.496;2024-03-06T08:03:34;45.67;;;32.10;;
26600;SDS011;14241;49.260;10.496;2024-03-06T08:05:59;48.13;;;33.03;;
26600;SDS011;14241;49.260;10.496;2024-03-06T08:08:25;48.53;;;31.60;;
26600;SDS011;14241;49.260;10.496;2024-03-06T08:10:50;42.95;;;30.00;;
26600;SDS011;14241;49.260;10.496;2024-03-06T08:13:16;46.30;;;31.52;;
26600;SDS011;14241;49.260;10.496;2024-03-06T08:15:41;45.67;;;30.83;;
26600;SDS011;14241;49.260;10.496;2024-03-06T08:18:09;44.63;;;30.90;;
26600;SDS011;14241;49.260;10.496;2024-03-06T08:20:34;47.15;;;32.47;;
26600;SDS011;14241;49.260;10.496;2024-03-06T08:22:59;44.78;;;30.55;;
26600;SDS011;14241;49.260;10.496;2024-03-06T08:25:25;49.22;;;31.80;;
26600;SDS011;14241;49.260;10.496;2024-03-06T08:27:50;46.67;;;30.25;;
26600;SDS011;14241;49.260;10.496;2024-03-06T08:30:15;47.70;;;32.38;;
26600;SDS011;14241;49.260;10.496;2024-03-06T08:32:41;47.25;;;31.65;;
26600;SDS011;14241;49.260;10.496;2024-03-06T08:35:09;47.45;;;31.98;;
26600;SDS011;14241;49.260;10.496;2024-03-06T08:37:40;50.10;;;32.50;;
26600;SDS011;14241;49.260;10.496;2024-03-06T08:40:06;48.70;;;32.47;;
26600;SDS011;14241;49.260;10.496;2024-03-06T08:45:08;47.37;;;32.33;;
26600;SDS011;14241;49.260;10.496;2024-03-06T08:47:33;49.15;;;31.30;;
26600;SDS011;14241;49.260;10.496;2024-03-06T08:49:59;53.63;;;33.53;;
26600;SDS011;14241;49.260;10.496;2024-03-06T08:52:24;57.60;;;33.83;;
26600;SDS011;14241;49.260;10.496;2024-03-06T08:54:49;55.60;;;32.33;;
26600;SDS011;14241;49.260;10.496;2024-03-06T08:57:14;51.90;;;33.13;;
26600;SDS011;14241;49.260;10.496;2024-03-06T08:59:41;51.63;;;32.30;;
26600;SDS011;14241;49.260;10.496;2024-03-06T09:02:14;48.10;;;32.22;;
26600;SDS011;14241;49.260;10.496;2024-03-06T09:04:40;50.38;;;31.63;;
26600;SDS011;14241;49.260;10.496;2024-03-06T09:07:06;49.80;;;33.22;;
26600;SDS011;14241;49.260;10.496;2024-03-06T09:09:31;51.72;;;34.35;;
26600;SDS011;14241;49.260;10.496;2024-03-06T09:11:59;49.15;;;30.25;;
26600;SDS011;14241;49.260;10.496;2024-03-06T09:14:25;51.22;;;31.48;;
26600;SDS011;14241;49.260;10.496;2024-03-06T09:16:50;50.00;;;30.60;;
26600;SDS011;14241;49.260;10.496;2024-03-06T09:19:15;50.25;;;31.13;;
26600;SDS011;14241;49.260;10.496;2024-03-06T09:21:41;47.78;;;30.67;;
26600;SDS011;14241;49.260;10.496;2024-03-06T09:24:06;46.95;;;29.80;;
26600;SDS011;14241;49.260;10.496;2024-03-06T09:26:31;48.58;;;31.77;;
26600;SDS011;14241;49.260;10.496;2024-03-06T09:28:57;50.50;;;31.80;;
26600;SDS011;14241;49.260;10.496;2024-03-06T09:31:22;49.88;;;31.17;;
26600;SDS011;14241;49.260;10.496;2024-03-06T09:33:48;50.85;;;30.90;;
26600;SDS011;14241;49.260;10.496;2024-03-06T09:36:13;50.88;;;31.80;;
26600;SDS011;14241;49.260;10.496;2024-03-06T09:38:39;54.60;;;32.90;;
26600;SDS011;14241;49.260;10.496;2024-03-06T09:41:05;50.85;;;31.35;;
26600;SDS011;14241;49.260;10.496;2024-03-06T09:43:32;51.15;;;29.92;;
26600;SDS011;14241;49.260;10.496;2024-03-06T09:45:57;50.42;;;31.50;;
26600;SDS011;14241;49.260;10.496;2024-03-06T09:48:22;48.50;;;30.85;;
26600;SDS011;14241;49.260;10.496;2024-03-06T09:50:48;47.97;;;30.88;;
26600;SDS011;14241;49.260;10.496;2024-03-06T09:53:15;45.83;;;29.00;;
26600;SDS011;14241;49.260;10.496;2024-03-06T09:55:41;45.55;;;29.25;;
26600;SDS011;14241;49.260;10.496;2024-03-06T09:58:07;43.85;;;29.48;;
26600;SDS011;14241;49.260;10.496;2024-03-06T10:00:34;46.75;;;29.85;;
26600;SDS011;14241;49.260;10.496;2024-03-06T10:03:01;45.30;;;29.17;;
26600;SDS011;14241;49.260;10.496;2024-03-06T10:05:28;47.25;;;29.55;;
26600;SDS011;14241;49.260;10.496;2024-03-06T10:07:55;46.25;;;29.65;;
26600;SDS011;14241;49.260;10.496;2024-03-06T10:10:20;40.38;;;27.20;;
26600;SDS011;14241;49.260;10.496;2024-03-06T10:12:48;39.92;;;26.77;;
26600;SDS011;14241;49.260;10.496;2024-03-06T10:15:14;41.83;;;27.65;;
26600;SDS011;14241;49.260;10.496;2024-03-06T10:17:39;39.17;;;26.88;;
26600;SDS011;14241;49.260;10.496;2024-03-06T10:20:16;40.70;;;27.10;;
26600;SDS011;14241;49.260;10.496;2024-03-06T10:22:41;42.50;;;26.55;;
26600;SDS011;14241;49.260;10.496;2024-03-06T10:25:06;45.80;;;28.23;;
26600;SDS011;14241;49.260;10.496;2024-03-06T10:27:34;41.92;;;26.70;;
26600;SDS011;14241;49.260;10.496;2024-03-06T10:30:03;41.03;;;27.08;;
26600;SDS011;14241;49.260;10.496;2024-03-06T10:32:30;38.03;;;25.23;;
26600;SDS011;14241;49.260;10.496;2024-03-06T10:34:55;39.63;;;27.42;;
26600;SDS011;14241;49.260;10.496;2024-03-06T10:37:20;41.80;;;27.13;;
26600;SDS011;14241;49.260;10.496;2024-03-06T10:39:47;39.85;;;27.42;;
26600;SDS011;14241;49.260;10.496;2024-03-06T10:42:14;41.72;;;27.50;;
26600;SDS011;14241;49.260;10.496;2024-03-06T10:44:42;43.47;;;26.70;;
26600;SDS011;14241;49.260;10.496;2024-03-06T10:47:11;40.05;;;26.85;;
26600;SDS011;14241;49.260;10.496;2024-03-06T10:49:36;40.13;;;26.80;;
26600;SDS011;14241;49.260;10.496;2024-03-06T10:52:02;40.30;;;27.52;;
26600;SDS011;14241;49.260;10.496;2024-03-06T10:54:31;41.20;;;26.17;;
26600;SDS011;14241;49.260;10.496;2024-03-06T10:56:57;42.00;;;26.70;;
26600;SDS011;14241;49.260;10.496;2024-03-06T10:59:26;38.67;;;25.63;;
26600;SDS011;14241;49.260;10.496;2024-03-06T11:01:58;40.25;;;25.65;;
26600;SDS011;14241;49.260;10.496;2024-03-06T11:04:27;35.00;;;23.70;;
26600;SDS011;14241;49.260;10.496;2024-03-06T11:06:59;35.83;;;24.50;;
26600;SDS011;14241;49.260;10.496;2024-03-06T11:09:25;36.95;;;24.88;;
26600;SDS011;14241;49.260;10.496;2024-03-06T11:11:51;35.13;;;23.40;;
26600;SDS011;14241;49.260;10.496;2024-03-06T11:14:17;35.08;;;23.35;;
26600;SDS011;14241;49.260;10.496;2024-03-06T11:16:56;36.20;;;23.73;;
26600;SDS011;14241;49.260;10.496;2024-03-06T11:19:22;36.30;;;23.27;;
26600;SDS011;14241;49.260;10.496;2024-03-06T11:21:47;37.20;;;23.85;;
26600;SDS011;14241;49.260;10.496;2024-03-06T11:26:55;30.63;;;22.35;;
26600;SDS011;14241;49.260;10.496;2024-03-06T11:29:22;35.38;;;22.05;;
26600;SDS011;14241;49.260;10.496;2024-03-06T11:34:29;28.60;;;17.83;;
26600;SDS011;14241;49.260;10.496;2024-03-06T11:36:58;28.60;;;19.15;;
26600;SDS011;14241;49.260;10.496;2024-03-06T11:39:27;28.60;;;20.08;;
26600;SDS011;14241;49.260;10.496;2024-03-06T11:41:52;29.25;;;19.75;;
26600;SDS011;14241;49.260;10.496;2024-03-06T11:44:19;29.50;;;19.42;;
26600;SDS011;14241;49.260;10.496;2024-03-06T11:49:20;28.58;;;19.80;;
26600;SDS011;14241;49.260;10.496;2024-03-06T11:51:49;28.35;;;19.20;;
26600;SDS011;14241;49.260;10.496;2024-03-06T11:54:14;30.25;;;20.60;;
26600;SDS011;14241;49.260;10.496;2024-03-06T11:56:40;27.02;;;20.10;;
26600;SDS011;14241;49.260;10.496;2024-03-06T11:59:06;30.98;;;18.85;;
26600;SDS011;14241;49.260;10.496;2024-03-06T12:01:35;26.25;;;19.23;;
26600;SDS011;14241;49.260;10.496;2024-03-06T12:04:01;28.48;;;17.63;;
26600;SDS011;14241;49.260;10.496;2024-03-06T12:06:27;29.70;;;18.90;;
26600;SDS011;14241;49.260;10.496;2024-03-06T12:08:53;26.17;;;19.02;;
26600;SDS011;14241;49.260;10.496;2024-03-06T12:11:19;29.15;;;19.38;;
26600;SDS011;14241;49.260;10.496;2024-03-06T12:13:46;28.23;;;20.58;;
26600;SDS011;14241;49.260;10.496;2024-03-06T12:16:13;27.83;;;19.00;;
26600;SDS011;14241;49.260;10.496;2024-03-06T12:18:38;28.85;;;19.73;;
26600;SDS011;14241;49.260;10.496;2024-03-06T12:21:04;29.70;;;19.65;;
26600;SDS011;14241;49.260;10.496;2024-03-06T12:23:29;28.65;;;20.17;;
26600;SDS011;14241;49.260;10.496;2024-03-06T12:26:08;29.92;;;20.23;;
26600;SDS011;14241;49.260;10.496;2024-03-06T12:28:36;30.05;;;20.20;;
26600;SDS011;14241;49.260;10.496;2024-03-06T12:31:02;26.85;;;18.05;;
26600;SDS011;14241;49.260;10.496;2024-03-06T12:33:28;27.80;;;18.58;;
26600;SDS011;14241;49.260;10.496;2024-03-06T12:36:06;28.48;;;19.70;;
26600;SDS011;14241;49.260;10.496;2024-03-06T12:38:32;27.90;;;18.77;;
26600;SDS011;14241;49.260;10.496;2024-03-06T12:40:57;26.98;;;19.90;;
26600;SDS011;14241;49.260;10.496;2024-03-06T12:43:24;28.17;;;18.85;;
26600;SDS011;14241;49.260;10.496;2024-03-06T12:45:49;26.83;;;18.23;;
26600;SDS011;14241;49.260;10.496;2024-03-06T12:48:14;27.58;;;19.50;;
26600;SDS011;14241;49.260;10.496;2024-03-06T12:50:40;25.73;;;17.65;;
26600;SDS011;14241;49.260;10.496;2024-03-06T12:53:07;27.65;;;19.20;;
26600;SDS011;14241;49.260;10.496;2024-03-06T12:55:32;28.67;;;19.10;;
26600;SDS011;14241;49.260;10.496;2024-03-06T12:57:58;27.85;;;19.45;;
26600;SDS011;14241;49.260;10.496;2024-03-06T13:00:23;29.35;;;19.95;;
26600;SDS011;14241;49.260;10.496;2024-03-06T13:02:49;28.02;;;19.30;;
26600;SDS011;14241;49.260;10.496;2024-03-06T13:05:15;28.27;;;18.50;;
26600;SDS011;14241;49.260;10.496;2024-03-06T13:07:42;27.50;;;18.45;;
26600;SDS011;14241;49.260;10.496;2024-03-06T13:10:07;28.00;;;19.65;;
26600;SDS011;14241;49.260;10.496;2024-03-06T13:12:35;25.70;;;18.25;;
26600;SDS011;14241;49.260;10.496;2024-03-06T13:15:01;28.67;;;19.73;;
26600;SDS011;14241;49.260;10.496;2024-03-06T13:17:26;32.80;;;21.02;;
26600;SDS011;14241;49.260;10.496;2024-03-06T13:19:51;31.40;;;20.17;;
26600;SDS011;14241;49.260;10.496;2024-03-06T13:22:16;26.98;;;18.70;;
26600;SDS011;14241;49.260;10.496;2024-03-06T13:24:42;29.08;;;19.88;;
26600;SDS011;14241;49.260;10.496;2024-03-06T13:27:07;30.33;;;20.98;;
26600;SDS011;14241;49.260;10.496;2024-03-06T13:29:33;29.17;;;20.02;;
26600;SDS011;14241;49.260;10.496;2024-03-06T13:31:58;33.28;;;21.15;;
26600;SDS011;14241;49.260;10.496;2024-03-06T13:34:23;31.95;;;20.33;;
26600;SDS011;14241;49.260;10.496;2024-03-06T13:36:49;29.85;;;20.42;;
26600;SDS011;14241;49.260;10.496;2024-03-06T13:39:14;41.83;;;27.50;;
26600;SDS011;14241;49.260;10.496;2024-03-06T13:41:40;41.40;;;28.40;;
26600;SDS011;14241;49.260;10.496;2024-03-06T13:44:05;30.08;;;21.88;;
26600;SDS011;14241;49.260;10.496;2024-03-06T13:46:32;27.45;;;19.38;;
26600;SDS011;14241;49.260;10.496;2024-03-06T13:48:58;26.75;;;19.65;;
26600;SDS011;14241;49.260;10.496;2024-03-06T13:51:24;30.08;;;19.20;;
26600;SDS011;14241;49.260;10.496;2024-03-06T13:53:49;28.30;;;19.23;;
26600;SDS011;14241;49.260;10.496;2024-03-06T13:56:14;28.35;;;20.42;;
26600;SDS011;14241;49.260;10.496;2024-03-06T13:58:39;29.38;;;20.40;;
26600;SDS011;14241;49.260;10.496;2024-03-06T14:01:05;27.58;;;19.02;;
26600;SDS011;14241;49.260;10.496;2024-03-06T14:03:31;27.55;;;18.17;;
26600;SDS011;14241;49.260;10.496;2024-03-06T14:05:58;24.02;;;18.35;;
26600;SDS011;14241;49.260;10.496;2024-03-06T14:08:24;30.48;;;19.83;;
26600;SDS011;14241;49.260;10.496;2024-03-06T14:10:50;26.42;;;18.75;;